sensor_id;sensor_type;location;lat;lon;timestamp;pressure;altitude;pressure_sealevel;temperature;humidity
78121;BME280;67585;44.802;10.332;2023-07-08T00:00:22;101483.94;;;25.01;52.49
78121;BME280;67585;44.802;10.332;2023-07-08T00:02:48;101483.13;;;25.00;52.35
78121;BME280;67585;44.802;10.332;2023-07-08T00:05:16;101480.53;;;24.95;52.16
78121;BME280;67585;44.802;10.332;2023-07-08T00:07:42;101473.13;;;24.66;53.04
78121;BME280;67585;44.802;10.332;2023-07-08T00:10:17;101480.75;;;24.30;53.83
78121;BME280;67585;44.802;10.332;2023-07-08T00:12:44;101499.38;;;24.34;54.48
78121;BME280;67585;44.802;10.332;2023-07-08T00:15:10;101474.16;;;24.23;54.28
78121;BME280;67585;44.802;10.332;2023-07-08T00:17:37;101498.50;;;24.50;53.82
78121;BME280;67585;44.802;10.332;2023-07-08T00:20:20;101495.84;;;24.63;53.52
78121;BME280;67585;44.802;10.332;2023-07-08T00:22:47;101479.13;;;24.29;54.34
78121;BME280;67585;44.802;10.332;2023-07-08T00:25:16;101479.19;;;24.12;55.55
78121;BME280;67585;44.802;10.332;2023-07-08T00:27:41;101482.41;;;24.23;54.96
78121;BME280;67585;44.802;10.332;2023-07-08T00:32:52;101462.81;;;23.77;56.28
78121;BME280;67585;44.802;10.332;2023-07-08T00:35:41;101487.84;;;24.02;56.31
78121;BME280;67585;44.802;10.332;2023-07-08T00:40:52;101478.28;;;23.99;57.02
78121;BME280;67585;44.802;10.332;2023-07-08T00:43:23;101470.34;;;23.98;57.89
78121;BME280;67585;44.802;10.332;2023-07-08T00:45:53;101479.47;;;23.72;58.78
78121;BME280;67585;44.802;10.332;2023-07-08T00:48:30;101474.56;;;23.95;58.36
78121;BME280;67585;44.802;10.332;2023-07-08T00:50:55;101478.59;;;24.06;57.84
78121;BME280;67585;44.802;10.332;2023-07-08T00:53:28;101483.88;;;24.20;57.47
78121;BME280;67585;44.802;10.332;2023-07-08T00:56:14;101429.13;;;23.89;57.58
78121;BME280;67585;44.802;10.332;2023-07-08T00:58:49;101459.69;;;23.96;58.46
78121;BME280;67585;44.802;10.332;2023-07-08T01:01:16;101467.78;;;24.31;57.43
78121;BME280;67585;44.802;10.332;2023-07-08T01:03:53;101463.16;;;24.14;57.87
78121;BME280;67585;44.802;10.332;2023-07-08T01:06:20;101476.25;;;24.26;58.16
78121;BME280;67585;44.802;10.332;2023-07-08T01:08:48;101478.28;;;24.38;57.00
78121;BME280;67585;44.802;10.332;2023-07-08T01:11:18;101481.38;;;24.36;57.56
78121;BME280;67585;44.802;10.332;2023-07-08T01:13:48;101478.25;;;24.46;56.67
78121;BME280;67585;44.802;10.332;2023-07-08T01:16:15;101476.72;;;24.28;57.69
78121;BME280;67585;44.802;10.332;2023-07-08T01:18:40;101489.69;;;24.27;57.75
78121;BME280;67585;44.802;10.332;2023-07-08T01:21:28;101493.66;;;24.47;56.52
78121;BME280;67585;44.802;10.332;2023-07-08T01:23:54;101480.75;;;24.30;57.65
78121;BME280;67585;44.802;10.332;2023-07-08T01:26:23;101474.78;;;24.20;57.61
78121;BME280;67585;44.802;10.332;2023-07-08T01:28:50;101483.13;;;24.41;57.17
78121;BME280;67585;44.802;10.332;2023-07-08T01:31:16;101483.00;;;24.37;56.96
78121;BME280;67585;44.802;10.332;2023-07-08T01:33:41;101483.34;;;24.27;58.34
78121;BME280;67585;44.802;10.332;2023-07-08T01:36:10;101474.09;;;24.31;57.83
78121;BME280;67585;44.802;10.332;2023-07-08T01:38:36;101465.84;;;24.31;57.55
78121;BME280;67585;44.802;10.332;2023-07-08T01:41:02;101436.53;;;24.27;57.72
78121;BME280;67585;44.802;10.332;2023-07-08T01:43:28;101446.34;;;24.45;57.51
78121;BME280;67585;44.802;10.332;2023-07-08T01:45:53;101431.31;;;24.34;57.38
78121;BME280;67585;44.802;10.332;2023-07-08T01:48:22;101446.03;;;24.47;57.52
78121;BME280;67585;44.802;10.332;2023-07-08T01:50:57;101414.66;;;24.30;57.26
78121;BME280;67585;44.802;10.332;2023-07-08T01:53:39;101441.06;;;24.31;57.64
78121;BME280;67585;44.802;10.332;2023-07-08T01:56:06;101417.56;;;23.96;58.43
78121;BME280;67585;44.802;10.332;2023-07-08T01:58:32;101413.94;;;24.13;57.15
78121;BME280;67585;44.802;10.332;2023-07-08T02:00:58;101433.47;;;23.90;58.27
78121;BME280;67585;44.802;10.332;2023-07-08T02:03:24;101426.88;;;24.21;57.81
78121;BME280;67585;44.802;10.332;2023-07-08T02:05:49;101430.56;;;24.25;57.38
78121;BME280;67585;44.802;10.332;2023-07-08T02:08:15;101421.59;;;24.07;57.88
78121;BME280;67585;44.802;10.332;2023-07-08T02:10:42;101423.06;;;24.04;57.47
78121;BME280;67585;44.802;10.332;2023-07-08T02:13:08;101421.59;;;24.07;57.80
78121;BME280;67585;44.802;10.332;2023-07-08T02:15:34;101427.53;;;24.18;57.05
78121;BME280;67585;44.802;10.332;2023-07-08T02:17:59;101428.19;;;24.15;57.19
78121;BME280;67585;44.802;10.332;2023-07-08T02:20:25;101407.13;;;23.80;57.51
78121;BME280;67585;44.802;10.332;2023-07-08T02:22:50;101422.38;;;24.07;56.92
78121;BME280;67585;44.802;10.332;2023-07-08T02:25:16;101430.53;;;23.95;57.47
78121;BME280;67585;44.802;10.332;2023-07-08T02:27:42;101423.47;;;23.68;58.14
78121;BME280;67585;44.802;10.332;2023-07-08T02:30:08;101404.53;;;23.66;58.04
78121;BME280;67585;44.802;10.332;2023-07-08T02:32:35;101424.47;;;23.63;58.37
78121;BME280;67585;44.802;10.332;2023-07-08T02:35:01;101435.00;;;23.53;59.17
78121;BME280;67585;44.802;10.332;2023-07-08T02:37:29;101436.59;;;23.62;58.84
78121;BME280;67585;44.802;10.332;2023-07-08T02:39:54;101435.16;;;23.56;58.85
78121;BME280;67585;44.802;10.332;2023-07-08T02:42:20;101430.03;;;23.29;59.51
78121;BME280;67585;44.802;10.332;2023-07-08T02:44:45;101419.00;;;23.46;58.75
78121;BME280;67585;44.802;10.332;2023-07-08T02:47:10;101412.34;;;23.47;59.02
78121;BME280;67585;44.802;10.332;2023-07-08T02:49:36;101416.28;;;23.29;59.54
78121;BME280;67585;44.802;10.332;2023-07-08T02:52:01;101407.06;;;23.33;59.30
78121;BME280;67585;44.802;10.332;2023-07-08T02:54:26;101413.63;;;23.58;58.33
78121;BME280;67585;44.802;10.332;2023-07-08T02:56:52;101413.69;;;23.32;60.01
78121;BME280;67585;44.802;10.332;2023-07-08T02:59:17;101395.41;;;22.84;60.97
78121;BME280;67585;44.802;10.332;2023-07-08T03:01:42;101411.59;;;22.77;61.59
78121;BME280;67585;44.802;10.332;2023-07-08T03:04:09;101396.72;;;22.78;61.55
78121;BME280;67585;44.802;10.332;2023-07-08T03:06:44;101408.22;;;23.15;60.15
78121;BME280;67585;44.802;10.332;2023-07-08T03:09:11;101403.50;;;23.24;59.61
78121;BME280;67585;44.802;10.332;2023-07-08T03:11:38;101411.91;;;23.36;59.28
78121;BME280;67585;44.802;10.332;2023-07-08T03:14:04;101406.44;;;23.19;59.66
78121;BME280;67585;44.802;10.332;2023-07-08T03:16:29;101414.03;;;23.04;59.57
78121;BME280;67585;44.802;10.332;2023-07-08T03:18:55;101417.09;;;22.77;60.62
78121;BME280;67585;44.802;10.332;2023-07-08T03:21:20;101415.31;;;22.98;59.78
78121;BME280;67585;44.802;10.332;2023-07-08T03:23:48;101397.69;;;22.82;60.51
78121;BME280;67585;44.802;10.332;2023-07-08T03:26:32;101412.28;;;23.09;59.95
78121;BME280;67585;44.802;10.332;2023-07-08T03:28:57;101431.34;;;23.14;60.02
78121;BME280;67585;44.802;10.332;2023-07-08T03:31:23;101429.06;;;23.07;60.07
78121;BME280;67585;44.802;10.332;2023-07-08T03:33:48;101423.06;;;22.96;60.57
78121;BME280;67585;44.802;10.332;2023-07-08T03:36:16;101412.25;;;23.00;60.18
78121;BME280;67585;44.802;10.332;2023-07-08T03:38:52;101396.56;;;23.00;60.13
78121;BME280;67585;44.802;10.332;2023-07-08T03:41:18;101414.81;;;22.79;60.21
78121;BME280;67585;44.802;10.332;2023-07-08T03:43:44;101418.72;;;22.87;59.89
78121;BME280;67585;44.802;10.332;2023-07-08T03:46:14;101415.94;;;22.60;60.23
78121;BME280;67585;44.802;10.332;2023-07-08T03:48:40;101434.53;;;22.81;59.52
78121;BME280;67585;44.802;10.332;2023-07-08T03:51:33;101438.84;;;22.65;60.07
78121;BME280;67585;44.802;10.332;2023-07-08T03:53:59;101424.19;;;22.78;58.91
78121;BME280;67585;44.802;10.332;2023-07-08T03:56:25;101432.59;;;22.90;59.18
78121;BME280;67585;44.802;10.332;2023-07-08T03:58:51;101433.72;;;22.80;58.81
78121;BME280;67585;44.802;10.332;2023-07-08T04:01:18;101444.38;;;22.91;59.29
78121;BME280;67585;44.802;10.332;2023-07-08T04:03:46;101435.66;;;22.71;59.53
78121;BME280;67585;44.802;10.332;2023-07-08T04:06:11;101429.38;;;22.88;59.00
78121;BME280;67585;44.802;10.332;2023-07-08T04:08:37;101451.84;;;22.90;58.96
78121;BME280;67585;44.802;10.332;2023-07-08T04:11:02;101468.34;;;23.08;58.20
78121;BME280;67585;44.802;10.332;2023-07-08T04:13:27;101466.03;;;22.83;59.35
78121;BME280;67585;44.802;10.332;2023-07-08T04:15:56;101489.22;;;23.17;58.26
78121;BME280;67585;44.802;10.332;2023-07-08T04:18:22;101486.59;;;23.64;56.85
78121;BME280;67585;44.802;10.332;2023-07-08T04:20:47;101471.13;;;23.16;58.43
78121;BME280;67585;44.802;10.332;2023-07-08T04:23:21;101469.34;;;23.38;57.56
78121;BME280;67585;44.802;10.332;2023-07-08T04:25:47;101487.78;;;23.11;58.67
78121;BME280;67585;44.802;10.332;2023-07-08T04:28:13;101491.47;;;23.41;57.95
78121;BME280;67585;44.802;10.332;2023-07-08T04:30:39;101486.94;;;23.37;58.21
78121;BME280;67585;44.802;10.332;2023-07-08T04:33:11;101487.78;;;23.11;58.41
78121;BME280;67585;44.802;10.332;2023-07-08T04:35:37;101484.03;;;23.07;57.92
78121;BME280;67585;44.802;10.332;2023-07-08T04:38:23;101497.28;;;23.05;58.86
78121;BME280;67585;44.802;10.332;2023-07-08T04:40:50;101507.50;;;23.22;57.97
78121;BME280;67585;44.802;10.332;2023-07-08T04:43:17;101512.84;;;23.18;58.75
78121;BME280;67585;44.802;10.332;2023-07-08T04:45:45;101488.97;;;22.70;59.90
78121;BME280;67585;44.802;10.332;2023-07-08T04:48:14;101494.53;;;23.05;58.67
78121;BME280;67585;44.802;10.332;2023-07-08T04:50:44;101490.19;;;23.39;57.96
78121;BME280;67585;44.802;10.332;2023-07-08T04:53:10;101486.16;;;23.45;57.43
78121;BME280;67585;44.802;10.332;2023-07-08T04:55:38;101481.31;;;23.33;57.60
78121;BME280;67585;44.802;10.332;2023-07-08T04:58:05;101473.19;;;23.37;57.21
78121;BME280;67585;44.802;10.332;2023-07-08T05:00:30;101477.56;;;23.29;58.07
78121;BME280;67585;44.802;10.332;2023-07-08T05:02:55;101468.69;;;23.15;58.43
78121;BME280;67585;44.802;10.332;2023-07-08T05:05:21;101476.94;;;23.41;58.17
78121;BME280;67585;44.802;10.332;2023-07-08T05:07:46;101448.66;;;23.23;58.10
78121;BME280;67585;44.802;10.332;2023-07-08T05:10:14;101433.28;;;23.22;57.84
78121;BME280;67585;44.802;10.332;2023-07-08T05:12:40;101438.41;;;22.97;58.69
78121;BME280;67585;44.802;10.332;2023-07-08T05:15:06;101456.88;;;23.32;58.31
78121;BME280;67585;44.802;10.332;2023-07-08T05:17:31;101455.28;;;23.04;58.92
78121;BME280;67585;44.802;10.332;2023-07-08T05:19:57;101467.06;;;23.22;59.29
78121;BME280;67585;44.802;10.332;2023-07-08T05:22:26;101461.53;;;23.49;57.72
78121;BME280;67585;44.802;10.332;2023-07-08T05:24:52;101454.44;;;23.13;59.09
78121;BME280;67585;44.802;10.332;2023-07-08T05:27:20;101464.13;;;23.54;58.24
78121;BME280;67585;44.802;10.332;2023-07-08T05:29:46;101474.16;;;23.32;59.17
78121;BME280;67585;44.802;10.332;2023-07-08T05:32:12;101463.16;;;23.50;57.99
78121;BME280;67585;44.802;10.332;2023-07-08T05:34:37;101459.44;;;23.37;58.32
78121;BME280;67585;44.802;10.332;2023-07-08T05:37:03;101458.47;;;23.41;58.39
78121;BME280;67585;44.802;10.332;2023-07-08T05:39:30;101450.00;;;23.73;57.38
78121;BME280;67585;44.802;10.332;2023-07-08T05:41:55;101448.78;;;23.18;59.80
78121;BME280;67585;44.802;10.332;2023-07-08T05:44:21;101444.38;;;22.73;61.95
78121;BME280;67585;44.802;10.332;2023-07-08T05:46:46;101449.41;;;22.89;61.29
78121;BME280;67585;44.802;10.332;2023-07-08T05:49:12;101412.47;;;22.29;62.32
78121;BME280;67585;44.802;10.332;2023-07-08T05:51:37;101457.78;;;22.66;62.37
78121;BME280;67585;44.802;10.332;2023-07-08T05:54:03;101425.13;;;22.65;62.09
78121;BME280;67585;44.802;10.332;2023-07-08T05:56:28;101434.97;;;22.57;62.88
78121;BME280;67585;44.802;10.332;2023-07-08T05:58:55;101439.06;;;22.86;61.89
78121;BME280;67585;44.802;10.332;2023-07-08T06:01:21;101435.19;;;22.78;61.78
78121;BME280;67585;44.802;10.332;2023-07-08T06:03:47;101445.78;;;22.45;63.17
78121;BME280;67585;44.802;10.332;2023-07-08T06:06:12;101466.72;;;22.89;61.80
78121;BME280;67585;44.802;10.332;2023-07-08T06:08:38;101458.81;;;22.96;61.33
78121;BME280;67585;44.802;10.332;2023-07-08T06:11:03;101435.53;;;23.02;60.93
78121;BME280;67585;44.802;10.332;2023-07-08T06:13:29;101465.41;;;23.56;59.57
78121;BME280;67585;44.802;10.332;2023-07-08T06:15:54;101466.44;;;23.25;61.22
78121;BME280;67585;44.802;10.332;2023-07-08T06:18:19;101474.31;;;22.92;62.14
78121;BME280;67585;44.802;10.332;2023-07-08T06:20:53;101468.22;;;23.21;60.83
78121;BME280;67585;44.802;10.332;2023-07-08T06:23:19;101447.13;;;23.52;58.91
78121;BME280;67585;44.802;10.332;2023-07-08T06:25:44;101446.13;;;23.82;58.38
78121;BME280;67585;44.802;10.332;2023-07-08T06:28:10;101421.59;;;22.81;61.12
78121;BME280;67585;44.802;10.332;2023-07-08T06:30:35;101458.31;;;23.03;61.08
78121;BME280;67585;44.802;10.332;2023-07-08T06:33:02;101418.06;;;23.33;59.75
78121;BME280;67585;44.802;10.332;2023-07-08T06:35:27;101447.91;;;23.70;59.35
78121;BME280;67585;44.802;10.332;2023-07-08T06:37:52;101433.09;;;24.00;58.22
78121;BME280;67585;44.802;10.332;2023-07-08T06:40:18;101407.16;;;24.10;56.92
78121;BME280;67585;44.802;10.332;2023-07-08T06:42:45;101427.97;;;24.28;57.12
78121;BME280;67585;44.802;10.332;2023-07-08T06:45:10;101432.38;;;24.50;56.66
78121;BME280;67585;44.802;10.332;2023-07-08T06:47:37;101438.31;;;24.61;56.43
78121;BME280;67585;44.802;10.332;2023-07-08T06:50:02;101452.63;;;24.76;56.34
78121;BME280;67585;44.802;10.332;2023-07-08T06:52:28;101455.66;;;24.83;56.12
78121;BME280;67585;44.802;10.332;2023-07-08T06:55:00;101445.06;;;24.93;54.72
78121;BME280;67585;44.802;10.332;2023-07-08T06:57:26;101460.19;;;25.08;54.65
78121;BME280;67585;44.802;10.332;2023-07-08T06:59:51;101443.00;;;24.61;55.73
78121;BME280;67585;44.802;10.332;2023-07-08T07:02:17;101470.81;;;24.77;56.21
78121;BME280;67585;44.802;10.332;2023-07-08T07:04:43;101467.25;;;24.97;56.01
78121;BME280;67585;44.802;10.332;2023-07-08T07:07:09;101460.22;;;25.29;54.99
78121;BME280;67585;44.802;10.332;2023-07-08T07:09:34;101454.78;;;25.12;55.52
78121;BME280;67585;44.802;10.332;2023-07-08T07:12:00;101440.81;;;25.17;55.70
78121;BME280;67585;44.802;10.332;2023-07-08T07:14:25;101443.81;;;25.45;55.20
78121;BME280;67585;44.802;10.332;2023-07-08T07:16:51;101429.25;;;25.24;55.71
78121;BME280;67585;44.802;10.332;2023-07-08T07:19:16;101437.31;;;25.29;55.74
78121;BME280;67585;44.802;10.332;2023-07-08T07:21:41;101426.63;;;25.27;55.86
78121;BME280;67585;44.802;10.332;2023-07-08T07:24:07;101424.88;;;25.56;55.51
78121;BME280;67585;44.802;10.332;2023-07-08T07:26:32;101428.41;;;25.90;54.80
78121;BME280;67585;44.802;10.332;2023-07-08T07:28:58;101427.97;;;26.12;54.00
78121;BME280;67585;44.802;10.332;2023-07-08T07:31:23;101442.34;;;26.18;53.80
78121;BME280;67585;44.802;10.332;2023-07-08T07:33:49;101436.13;;;26.33;53.12
78121;BME280;67585;44.802;10.332;2023-07-08T07:36:15;101435.22;;;26.54;52.52
78121;BME280;67585;44.802;10.332;2023-07-08T07:38:40;101400.69;;;26.23;52.86
78121;BME280;67585;44.802;10.332;2023-07-08T07:41:06;101437.97;;;26.41;52.16
78121;BME280;67585;44.802;10.332;2023-07-08T07:43:35;101447.84;;;26.67;51.66
78121;BME280;67585;44.802;10.332;2023-07-08T07:46:00;101443.38;;;26.38;51.67
78121;BME280;67585;44.802;10.332;2023-07-08T07:48:26;101457.28;;;26.78;50.67
78121;BME280;67585;44.802;10.332;2023-07-08T07:50:51;101455.97;;;27.00;50.28
78121;BME280;67585;44.802;10.332;2023-07-08T07:53:17;101463.53;;;26.75;51.07
78121;BME280;67585;44.802;10.332;2023-07-08T07:55:42;101448.41;;;26.48;51.86
78121;BME280;67585;44.802;10.332;2023-07-08T07:58:08;101440.53;;;26.22;50.76
78121;BME280;67585;44.802;10.332;2023-07-08T08:00:34;101453.06;;;26.44;50.66
78121;BME280;67585;44.802;10.332;2023-07-08T08:02:59;101463.41;;;26.47;50.69
78121;BME280;67585;44.802;10.332;2023-07-08T08:05:24;101464.03;;;26.93;49.72
78121;BME280;67585;44.802;10.332;2023-07-08T08:07:50;101431.81;;;26.85;49.42
78121;BME280;67585;44.802;10.332;2023-07-08T08:10:15;101469.47;;;27.58;48.30
78121;BME280;67585;44.802;10.332;2023-07-08T08:12:41;101474.13;;;27.70;47.14
78121;BME280;67585;44.802;10.332;2023-07-08T08:15:07;101481.06;;;27.48;48.08
78121;BME280;67585;44.802;10.332;2023-07-08T08:17:32;101463.84;;;27.26;47.34
78121;BME280;67585;44.802;10.332;2023-07-08T08:19:58;101462.88;;;27.63;47.46
78121;BME280;67585;44.802;10.332;2023-07-08T08:22:23;101480.88;;;27.85;45.40
78121;BME280;67585;44.802;10.332;2023-07-08T08:24:49;101479.16;;;27.96;45.08
78121;BME280;67585;44.802;10.332;2023-07-08T08:27:15;101485.47;;;27.65;45.92
78121;BME280;67585;44.802;10.332;2023-07-08T08:29:40;101484.81;;;28.16;44.55
78121;BME280;67585;44.802;10.332;2023-07-08T08:32:06;101461.34;;;28.61;43.37
78121;BME280;67585;44.802;10.332;2023-07-08T08:34:31;101466.47;;;28.78;42.99
78121;BME280;67585;44.802;10.332;2023-07-08T08:36:57;101462.75;;;28.70;43.86
78121;BME280;67585;44.802;10.332;2023-07-08T08:39:22;101475.13;;;28.25;44.83
78121;BME280;67585;44.802;10.332;2023-07-08T08:41:49;101471.22;;;28.77;44.23
78121;BME280;67585;44.802;10.332;2023-07-08T08:44:24;101460.75;;;28.87;43.65
78121;BME280;67585;44.802;10.332;2023-07-08T08:47:00;101470.78;;;29.11;42.78
78121;BME280;67585;44.802;10.332;2023-07-08T08:49:35;101476.00;;;28.61;42.58
78121;BME280;67585;44.802;10.332;2023-07-08T08:52:03;101478.28;;;28.55;41.50
78121;BME280;67585;44.802;10.332;2023-07-08T08:54:30;101478.34;;;28.94;40.36
78121;BME280;67585;44.802;10.332;2023-07-08T08:59:57;101470.25;;;29.25;38.97
78121;BME280;67585;44.802;10.332;2023-07-08T09:02:41;101485.00;;;29.09;37.81
78121;BME280;67585;44.802;10.332;2023-07-08T09:05:10;101469.91;;;29.26;39.20
78121;BME280;67585;44.802;10.332;2023-07-08T09:10:26;101474.38;;;29.96;37.18
78121;BME280;67585;44.802;10.332;2023-07-08T09:13:00;101472.88;;;30.02;38.07
78121;BME280;67585;44.802;10.332;2023-07-08T09:15:28;101472.53;;;30.04;37.37
78121;BME280;67585;44.802;10.332;2023-07-08T09:17:57;101476.75;;;29.71;37.66
78121;BME280;67585;44.802;10.332;2023-07-08T09:20:28;101479.38;;;29.87;36.80
78121;BME280;67585;44.802;10.332;2023-07-08T09:23:18;101484.81;;;30.26;36.87
78121;BME280;67585;44.802;10.332;2023-07-08T09:25:52;101454.63;;;29.36;38.68
78121;BME280;67585;44.802;10.332;2023-07-08T09:28:19;101480.75;;;29.97;37.49
78121;BME280;67585;44.802;10.332;2023-07-08T09:30:49;101455.09;;;30.07;36.72
78121;BME280;67585;44.802;10.332;2023-07-08T09:33:17;101474.03;;;30.78;35.03
78121;BME280;67585;44.802;10.332;2023-07-08T09:35:46;101474.06;;;30.51;34.73
78121;BME280;67585;44.802;10.332;2023-07-08T09:38:17;101468.47;;;31.04;36.22
78121;BME280;67585;44.802;10.332;2023-07-08T09:40:48;101467.44;;;30.59;35.31
78121;BME280;67585;44.802;10.332;2023-07-08T09:45:42;101479.44;;;30.90;33.49
78121;BME280;67585;44.802;10.332;2023-07-08T09:48:25;101465.38;;;31.13;32.04
78121;BME280;67585;44.802;10.332;2023-07-08T09:50:53;101467.13;;;31.25;32.10
78121;BME280;67585;44.802;10.332;2023-07-08T09:53:19;101468.00;;;30.99;34.08
78121;BME280;67585;44.802;10.332;2023-07-08T09:55:45;101472.28;;;31.60;32.87
78121;BME280;67585;44.802;10.332;2023-07-08T09:58:11;101467.13;;;31.62;32.28
78121;BME280;67585;44.802;10.332;2023-07-08T10:00:40;101460.34;;;31.60;31.71
78121;BME280;67585;44.802;10.332;2023-07-08T10:03:30;101460.41;;;31.63;32.03
78121;BME280;67585;44.802;10.332;2023-07-08T10:05:58;101467.47;;;31.95;31.72
78121;BME280;67585;44.802;10.332;2023-07-08T10:08:34;101447.00;;;31.80;31.61
78121;BME280;67585;44.802;10.332;2023-07-08T10:11:26;101467.63;;;31.68;32.19
78121;BME280;67585;44.802;10.332;2023-07-08T10:13:54;101467.25;;;31.73;31.73
78121;BME280;67585;44.802;10.332;2023-07-08T10:16:27;101461.63;;;31.32;31.95
78121;BME280;67585;44.802;10.332;2023-07-08T10:18:54;101456.97;;;31.81;30.53
78121;BME280;67585;44.802;10.332;2023-07-08T10:25:09;101463.78;;;32.31;30.93
78121;BME280;67585;44.802;10.332;2023-07-08T10:30:02;101461.25;;;31.71;30.49
78121;BME280;67585;44.802;10.332;2023-07-08T10:37:54;101436.41;;;31.51;32.24
78121;BME280;67585;44.802;10.332;2023-07-08T10:54:26;101432.25;;;32.24;30.65
78121;BME280;67585;44.802;10.332;2023-07-08T11:05:49;101435.69;;;32.62;30.48
78121;BME280;67585;44.802;10.332;2023-07-08T11:11:01;101410.16;;;32.60;31.54
78121;BME280;67585;44.802;10.332;2023-07-08T11:13:30;101429.00;;;32.84;31.07
78121;BME280;67585;44.802;10.332;2023-07-08T11:16:13;101422.63;;;32.14;32.47
78121;BME280;67585;44.802;10.332;2023-07-08T11:18:56;101425.91;;;32.30;30.50
78121;BME280;67585;44.802;10.332;2023-07-08T11:21:27;101408.16;;;32.56;29.35
78121;BME280;67585;44.802;10.332;2023-07-08T11:26:45;101394.25;;;32.64;31.56
78121;BME280;67585;44.802;10.332;2023-07-08T11:29:24;101378.00;;;32.87;30.47
78121;BME280;67585;44.802;10.332;2023-07-08T11:31:52;101393.72;;;32.44;31.51
78121;BME280;67585;44.802;10.332;2023-07-08T11:34:19;101386.88;;;32.30;30.66
78121;BME280;67585;44.802;10.332;2023-07-08T11:36:46;101386.47;;;32.32;30.50
78121;BME280;67585;44.802;10.332;2023-07-08T11:39:33;101393.63;;;33.10;30.30
78121;BME280;67585;44.802;10.332;2023-07-08T11:44:55;101385.41;;;32.51;30.97
78121;BME280;67585;44.802;10.332;2023-07-08T11:47:26;101371.59;;;32.83;29.45
78121;BME280;67585;44.802;10.332;2023-07-08T11:49:56;101367.28;;;33.11;29.82
78121;BME280;67585;44.802;10.332;2023-07-08T11:52:22;101358.94;;;33.32;28.85
78121;BME280;67585;44.802;10.332;2023-07-08T11:54:48;101376.91;;;33.49;28.34
78121;BME280;67585;44.802;10.332;2023-07-08T11:57:28;101368.50;;;33.10;28.73
78121;BME280;67585;44.802;10.332;2023-07-08T12:00:21;101375.19;;;32.80;30.26
78121;BME280;67585;44.802;10.332;2023-07-08T12:02:58;101370.19;;;33.57;28.76
78121;BME280;67585;44.802;10.332;2023-07-08T12:05:36;101362.81;;;32.88;29.46
78121;BME280;67585;44.802;10.332;2023-07-08T12:08:13;101371.34;;;33.53;28.42
78121;BME280;67585;44.802;10.332;2023-07-08T12:10:50;101362.13;;;33.34;28.59
78121;BME280;67585;44.802;10.332;2023-07-08T12:13:19;101376.75;;;32.77;29.15
78121;BME280;67585;44.802;10.332;2023-07-08T12:15:45;101357.72;;;33.12;29.11
78121;BME280;67585;44.802;10.332;2023-07-08T12:18:24;101379.25;;;33.08;29.23
78121;BME280;67585;44.802;10.332;2023-07-08T12:20:59;101375.16;;;32.76;28.59
78121;BME280;67585;44.802;10.332;2023-07-08T12:23:27;101368.50;;;33.06;27.94
78121;BME280;67585;44.802;10.332;2023-07-08T12:25:54;101345.31;;;33.02;27.76
78121;BME280;67585;44.802;10.332;2023-07-08T12:28:21;101364.97;;;33.56;27.46
78121;BME280;67585;44.802;10.332;2023-07-08T12:30:48;101376.09;;;33.34;27.04
78121;BME280;67585;44.802;10.332;2023-07-08T12:33:21;101356.56;;;33.31;27.66
78121;BME280;67585;44.802;10.332;2023-07-08T12:35:50;101367.59;;;32.84;28.55
78121;BME280;67585;44.802;10.332;2023-07-08T12:38:23;101348.81;;;32.67;28.05
78121;BME280;67585;44.802;10.332;2023-07-08T12:40:53;101364.94;;;33.38;27.70
78121;BME280;67585;44.802;10.332;2023-07-08T12:43:18;101364.16;;;33.55;27.10
78121;BME280;67585;44.802;10.332;2023-07-08T12:45:44;101362.59;;;33.58;26.03
78121;BME280;67585;44.802;10.332;2023-07-08T12:48:09;101366.19;;;33.66;26.88
78121;BME280;67585;44.802;10.332;2023-07-08T12:50:35;101358.19;;;33.42;25.68
78121;BME280;67585;44.802;10.332;2023-07-08T12:53:00;101344.22;;;33.42;26.86
78121;BME280;67585;44.802;10.332;2023-07-08T12:55:29;101337.78;;;33.28;27.02
78121;BME280;67585;44.802;10.332;2023-07-08T12:57:55;101328.22;;;33.50;26.91
78121;BME280;67585;44.802;10.332;2023-07-08T13:00:25;101352.16;;;33.19;27.71
78121;BME280;67585;44.802;10.332;2023-07-08T13:02:59;101352.97;;;33.16;27.98
78121;BME280;67585;44.802;10.332;2023-07-08T13:05:26;101349.75;;;33.25;27.81
78121;BME280;67585;44.802;10.332;2023-07-08T13:07:52;101344.56;;;33.30;26.43
78121;BME280;67585;44.802;10.332;2023-07-08T13:10:22;101352.84;;;32.84;27.05
78121;BME280;67585;44.802;10.332;2023-07-08T13:12:52;101339.91;;;32.36;28.12
78121;BME280;67585;44.802;10.332;2023-07-08T13:15:27;101359.56;;;32.72;28.20
78121;BME280;67585;44.802;10.332;2023-07-08T13:17:53;101352.94;;;32.14;28.33
78121;BME280;67585;44.802;10.332;2023-07-08T13:20:20;101337.56;;;31.83;28.47
78121;BME280;67585;44.802;10.332;2023-07-08T13:22:46;101352.22;;;32.35;27.67
78121;BME280;67585;44.802;10.332;2023-07-08T13:25:16;101341.13;;;32.46;27.92
78121;BME280;67585;44.802;10.332;2023-07-08T13:27:57;101347.94;;;32.52;27.92
78121;BME280;67585;44.802;10.332;2023-07-08T13:30:25;101350.63;;;32.34;28.93
78121;BME280;67585;44.802;10.332;2023-07-08T13:32:53;101345.53;;;31.84;29.13
78121;BME280;67585;44.802;10.332;2023-07-08T13:35:39;101358.59;;;32.32;28.22
78121;BME280;67585;44.802;10.332;2023-07-08T13:38:11;101338.97;;;32.10;28.18
78121;BME280;67585;44.802;10.332;2023-07-08T13:40:42;101331.78;;;32.09;28.40
78121;BME280;67585;44.802;10.332;2023-07-08T13:43:09;101338.06;;;31.96;28.83